createdAt,value
2022-08-30T00:01:57.745Z,38.86
2022-08-30T00:07:24.229Z,38.89
2022-08-30T00:12:17.085Z,39.12
2022-08-30T00:17:17.016Z,39.32
2022-08-30T00:22:16.992Z,39.52
2022-08-30T00:27:16.896Z,39.75
2022-08-30T00:32:16.894Z,39.94
2022-08-30T00:37:16.759Z,40.08
2022-08-30T00:42:16.684Z,40.21
2022-08-30T00:47:16.678Z,40.35
2022-08-30T00:52:16.571Z,40.46
2022-08-30T00:57:16.503Z,40.59
2022-08-30T01:02:16.497Z,40.73
2022-08-30T01:07:16.347Z,40.91
2022-08-30T01:12:16.289Z,41.12
2022-08-30T01:17:16.197Z,41.35
2022-08-30T01:22:16.150Z,41.61
2022-08-30T01:27:16.062Z,41.82
2022-08-30T01:32:18.714Z,42.02
2022-08-30T01:37:15.996Z,42.15
2022-08-30T01:42:15.878Z,42.27
2022-08-30T01:47:15.810Z,42.43
2022-08-30T01:52:15.768Z,42.62
2022-08-30T01:57:15.670Z,42.75
2022-08-30T02:02:15.612Z,42.92
2022-08-30T02:07:17.063Z,42.99
2022-08-30T02:12:15.510Z,43.08
2022-08-30T02:17:15.406Z,43.15
2022-08-30T02:22:15.346Z,43.25
2022-08-30T02:27:15.248Z,43.39
2022-08-30T02:32:15.205Z,43.55
2022-08-30T02:37:15.220Z,43.71
2022-08-30T02:42:15.072Z,43.90
2022-08-30T02:47:15.012Z,44.08
2022-08-30T02:52:14.942Z,44.23
2022-08-30T02:57:19.974Z,44.43
2022-08-30T03:02:15.803Z,44.61
2022-08-30T03:07:14.746Z,44.79
2022-08-30T03:12:14.667Z,45.00
2022-08-30T03:17:15.753Z,45.20
2022-08-30T03:22:14.542Z,45.37
2022-08-30T03:27:14.481Z,45.49
2022-08-30T03:32:14.470Z,45.67
2022-08-30T03:37:14.365Z,45.77
2022-08-30T03:42:14.399Z,45.90
2022-08-30T03:47:14.261Z,46.04
2022-08-30T03:52:14.184Z,46.18
2022-08-30T03:57:20.142Z,46.32
2022-08-30T04:02:15.083Z,46.47
2022-08-30T04:07:13.956Z,46.57
2022-08-30T04:12:13.909Z,46.70
2022-08-30T04:17:24.334Z,46.69
2022-08-30T04:22:16.762Z,46.96
2022-08-30T04:27:16.644Z,47.11
2022-08-30T04:32:16.605Z,47.22
2022-08-30T04:37:16.505Z,47.26
2022-08-30T04:42:16.445Z,47.30
2022-08-30T04:47:16.374Z,47.29
2022-08-30T04:52:16.476Z,47.24
2022-08-30T04:57:16.377Z,47.25
2022-08-30T05:02:16.292Z,47.33
2022-08-30T05:07:16.149Z,47.39
2022-08-30T05:12:16.305Z,47.47
2022-08-30T05:17:16.058Z,47.50
2022-08-30T05:22:15.948Z,47.54
2022-08-30T05:27:15.837Z,47.64
2022-08-30T05:32:15.790Z,47.62
2022-08-30T05:37:15.739Z,47.47
2022-08-30T05:42:16.955Z,47.38
2022-08-30T05:47:15.580Z,47.22
2022-08-30T05:52:15.544Z,47.01
2022-08-30T05:57:15.453Z,46.83
2022-08-30T06:02:15.483Z,46.66
2022-08-30T06:07:16.482Z,46.67
2022-08-30T06:12:15.239Z,46.62
2022-08-30T06:17:15.233Z,46.57
2022-08-30T06:22:15.093Z,46.56
2022-08-30T06:27:15.066Z,46.54
2022-08-30T06:32:15.106Z,46.45
2022-08-30T06:37:29.762Z,46.11
2022-08-30T06:42:15.947Z,44.14
2022-08-30T06:47:14.792Z,41.95
2022-08-30T06:52:14.764Z,41.13
2022-08-30T06:57:14.643Z,40.37
2022-08-30T07:02:14.728Z,39.28
2022-08-30T07:07:14.563Z,38.21
2022-08-30T07:12:14.486Z,37.42
2022-08-30T07:17:14.425Z,37.40
2022-08-30T07:22:14.328Z,37.96
2022-08-30T07:27:14.265Z,36.74
2022-08-30T07:32:14.202Z,36.45
2022-08-30T07:37:14.531Z,35.04
2022-08-30T07:42:14.084Z,34.68
2022-08-30T07:47:13.986Z,36.13
2022-08-30T07:52:13.983Z,36.26
2022-08-30T07:57:16.030Z,35.87
2022-08-30T08:02:13.934Z,34.94
2022-08-30T08:07:13.813Z,33.23
2022-08-30T08:12:13.661Z,32.09
2022-08-30T08:17:13.613Z,31.19
2022-08-30T08:22:21.682Z,30.88
2022-08-30T08:27:14.536Z,30.85
2022-08-30T08:32:13.431Z,30.12
2022-08-30T08:37:13.332Z,29.46
2022-08-30T08:42:13.291Z,28.76
2022-08-30T08:47:13.709Z,28.06
2022-08-30T08:52:13.250Z,27.44
2022-08-30T08:57:15.992Z,26.47
2022-08-30T09:02:13.030Z,25.82
2022-08-30T09:07:12.965Z,25.63
2022-08-30T09:12:12.886Z,24.51
2022-08-30T09:17:12.828Z,23.24
2022-08-30T09:22:12.790Z,22.18
2022-08-30T09:27:12.677Z,21.23
2022-08-30T09:32:25.297Z,20.61
2022-08-30T09:37:13.582Z,19.78
2022-08-30T09:42:12.507Z,19.47
2022-08-30T09:47:12.452Z,18.88
2022-08-30T09:52:12.424Z,18.61
2022-08-30T09:57:12.965Z,17.55
2022-08-30T10:02:12.334Z,17.19
2022-08-30T10:07:12.993Z,16.61
2022-08-30T10:12:12.174Z,16.42
2022-08-30T10:22:13.040Z,16.20
2022-08-30T10:27:11.982Z,16.01
2022-08-30T10:32:11.930Z,16.06
2022-08-30T10:37:11.856Z,15.79
2022-08-30T10:42:11.829Z,15.52
2022-08-30T10:47:11.721Z,15.00
2022-08-30T10:52:11.682Z,15.21
2022-08-30T10:57:11.597Z,15.74
2022-08-30T11:02:11.522Z,15.53
2022-08-30T11:07:11.472Z,15.46
2022-08-30T11:12:11.414Z,15.14
2022-08-30T11:17:11.368Z,15.14
2022-08-30T11:22:11.301Z,15.09
2022-08-30T11:27:11.224Z,15.06
2022-08-30T11:32:12.006Z,14.96
2022-08-30T11:37:11.210Z,14.96
2022-08-30T11:42:11.052Z,15.00
2022-08-30T11:47:10.984Z,14.83
2022-08-30T11:52:28.292Z,14.85
2022-08-30T11:57:11.895Z,15.09
2022-08-30T12:02:10.848Z,15.12
2022-08-30T12:07:10.724Z,15.24
2022-08-30T12:12:10.717Z,15.12
2022-08-30T12:17:10.604Z,15.75
2022-08-30T12:22:10.661Z,16.01
2022-08-30T12:27:11.272Z,16.02
2022-08-30T12:32:10.501Z,16.19
2022-08-30T12:37:10.388Z,17.55
2022-08-30T12:42:10.320Z,17.56
2022-08-30T12:47:10.283Z,16.91
2022-08-30T12:52:10.203Z,16.65
2022-08-30T12:57:32.074Z,16.77
2022-08-30T13:02:20.326Z,16.79
2022-08-30T13:07:11.019Z,17.64
2022-08-30T13:12:09.917Z,18.47
2022-08-30T13:17:09.874Z,19.34
2022-08-30T13:22:09.965Z,19.98
2022-08-30T13:27:09.759Z,20.03
2022-08-30T13:32:09.697Z,19.86
2022-08-30T13:37:47.256Z,20.08
2022-08-30T13:52:20.380Z,21.70
2022-08-30T13:57:10.366Z,22.11
2022-08-30T14:02:11.438Z,22.33
2022-08-30T14:07:13.891Z,22.19
2022-08-30T14:12:10.157Z,22.36
2022-08-30T14:17:09.156Z,22.60
2022-08-30T14:22:09.058Z,22.36
2022-08-30T14:27:08.955Z,21.89
2022-08-30T14:32:08.929Z,21.67
2022-08-30T14:37:08.839Z,21.43
2022-08-30T14:42:09.549Z,21.25
2022-08-30T14:47:08.732Z,21.29
2022-08-30T14:52:08.640Z,21.05
2022-08-30T14:57:08.597Z,21.24
2022-08-30T15:02:08.526Z,21.40
2022-08-30T15:07:13.115Z,21.93
2022-08-30T15:12:09.426Z,22.59
2022-08-30T15:17:08.401Z,22.42
2022-08-30T15:22:08.305Z,22.42
2022-08-30T15:27:08.198Z,22.59
2022-08-30T15:32:08.160Z,22.76
2022-08-30T15:37:08.097Z,22.94
2022-08-30T15:42:08.030Z,23.10
2022-08-30T15:47:08.328Z,23.27
2022-08-30T15:52:10.103Z,23.37
2022-08-30T15:57:07.833Z,23.53
2022-08-30T16:02:07.820Z,23.77
2022-08-30T16:07:07.715Z,23.88
2022-08-30T16:12:07.676Z,23.96
2022-08-30T16:17:07.604Z,24.05
2022-08-30T16:22:07.605Z,24.17
2022-08-30T16:27:08.795Z,24.31
2022-08-30T16:32:07.399Z,24.49
2022-08-30T16:37:07.312Z,24.93
2022-08-30T16:42:07.273Z,25.28
2022-08-30T16:47:11.427Z,25.53
2022-08-30T16:52:08.150Z,25.75
2022-08-30T16:57:07.051Z,25.88
2022-08-30T17:02:07.065Z,26.01
2022-08-30T17:07:06.943Z,26.14
2022-08-30T17:12:07.891Z,26.37
2022-08-30T17:17:06.788Z,26.59
2022-08-30T17:22:08.695Z,26.83
2022-08-30T17:27:06.655Z,27.05
2022-08-30T17:32:06.611Z,27.28
2022-08-30T17:37:07.054Z,27.60
2022-08-30T17:42:06.457Z,28.02
2022-08-30T17:47:06.388Z,28.48
2022-08-30T17:52:06.347Z,28.81
2022-08-30T17:57:10.135Z,29.14
2022-08-30T18:02:06.232Z,29.45
2022-08-30T18:07:06.466Z,29.75
2022-08-30T18:12:06.050Z,30.09
2022-08-30T18:17:06.075Z,30.51
2022-08-30T18:22:05.989Z,30.72
2022-08-30T18:27:05.867Z,30.94
2022-08-30T18:32:05.788Z,31.02
2022-08-30T18:37:05.735Z,31.14
2022-08-30T18:42:06.775Z,31.22
2022-08-30T18:47:05.875Z,31.34
2022-08-30T18:52:05.544Z,31.46
2022-08-30T18:57:05.523Z,31.57
2022-08-30T19:02:05.538Z,31.65
2022-08-30T19:07:05.498Z,31.84
2022-08-30T19:12:09.434Z,31.93
2022-08-30T19:17:07.207Z,32.01
2022-08-30T19:22:05.127Z,32.09
2022-08-30T19:27:05.283Z,32.23
2022-08-30T19:32:05.027Z,32.36
2022-08-30T19:37:04.966Z,32.49
2022-08-30T19:42:04.885Z,32.65
2022-08-30T19:47:04.829Z,32.82
2022-08-30T19:52:04.764Z,32.89
2022-08-30T19:57:04.693Z,33.06
2022-08-30T20:02:04.722Z,33.15
2022-08-30T20:07:04.587Z,33.32
2022-08-30T20:12:04.495Z,33.46
2022-08-30T20:17:04.465Z,33.57
2022-08-30T20:22:08.099Z,33.74
2022-08-30T20:27:04.309Z,33.82
2022-08-30T20:32:04.351Z,33.94
2022-08-30T20:37:04.194Z,34.15
2022-08-30T20:42:04.102Z,34.27
2022-08-30T20:47:04.479Z,34.37
2022-08-30T20:52:04.837Z,34.48
2022-08-30T20:57:03.949Z,34.56
2022-08-30T21:02:03.858Z,34.74
2022-08-30T21:07:03.807Z,34.87
2022-08-30T21:12:03.761Z,35.05
2022-08-30T21:17:03.719Z,35.11
2022-08-30T21:22:03.556Z,35.24
2022-08-30T21:27:03.594Z,35.38
2022-08-30T21:32:03.450Z,35.45
2022-08-30T21:37:03.416Z,35.63
2022-08-30T21:42:03.365Z,35.68
2022-08-30T21:47:03.222Z,35.87
2022-08-30T21:52:03.201Z,35.95
2022-08-30T21:57:03.095Z,36.16
2022-08-30T22:02:03.073Z,36.20
2022-08-30T22:07:02.976Z,36.24
2022-08-30T22:12:02.987Z,36.28
2022-08-30T22:17:02.950Z,36.30
2022-08-30T22:22:02.732Z,36.45
2022-08-30T22:27:02.798Z,36.48
2022-08-30T22:32:02.734Z,36.48
2022-08-30T22:37:02.605Z,36.50
2022-08-30T22:42:02.677Z,36.55
2022-08-30T22:47:02.466Z,36.67
2022-08-30T22:52:02.358Z,36.78
2022-08-30T22:57:02.917Z,36.81
2022-08-30T23:02:02.477Z,36.88
2022-08-30T23:07:02.180Z,36.95
2022-08-30T23:12:02.394Z,37.05
2022-08-30T23:17:02.039Z,37.10
2022-08-30T23:22:02.004Z,37.17
2022-08-30T23:27:03.220Z,37.22
2022-08-30T23:32:01.885Z,37.28
2022-08-30T23:37:01.897Z,37.42
2022-08-30T23:42:01.789Z,37.54
2022-08-30T23:47:01.810Z,37.67
2022-08-30T23:52:01.645Z,37.74
2022-08-30T23:57:01.663Z,37.80
